Time;durP1;ratioP1;P1;durP2;ratioP2;P2;SDS_P1;SDS_P2;PMS_P1;PMS_P2;Temp;Humidity;BMP_temperature;BMP_pressure;BME280_temperature;BME280_humidity;BME280_pressure;Samples;Min_cycle;Max_cycle;Signal;HPM_P1;HPM_P2
2023/03/31 00:01:40;;;;;;;5.55;1.00;;;10.70;99.90;;;;;;4969358;28;20041;-76
2023/03/31 00:04:12;;;;;;;8.02;1.55;;;10.70;99.90;;;;;;4990368;28;21009;-75
2023/03/31 00:06:40;;;;;;;10.73;1.83;;;10.80;99.90;;;;;;4975406;28;20033;-74
2023/03/31 00:09:10;;;;;;;6.45;1.10;;;10.80;99.90;;;;;;4958865;28;20170;-74
2023/03/31 00:11:36;;;;;;;9.73;1.27;;;10.90;99.90;;;;;;4967822;28;20041;-75
2023/03/31 00:14:06;;;;;;;7.18;1.17;;;10.90;99.90;;;;;;4978992;28;20061;-75
2023/03/31 00:16:36;;;;;;;5.45;0.88;;;10.90;99.90;;;;;;4980142;28;20033;-75
2023/03/31 00:19:04;;;;;;;4.15;1.10;;;10.90;99.90;;;;;;4978928;28;20041;-75
2023/03/31 00:21:33;;;;;;;6.45;0.90;;;10.90;99.90;;;;;;4967612;28;20528;-75
2023/03/31 00:24:06;;;;;;;8.00;1.10;;;10.90;99.90;;;;;;4976415;28;20037;-76
2023/03/31 00:26:34;;;;;;;7.35;1.15;;;10.90;99.90;;;;;;4975868;28;20050;-76
2023/03/31 00:29:01;;;;;;;5.53;1.17;;;10.90;99.90;;;;;;4975702;28;20049;-75
2023/03/31 00:31:28;;;;;;;8.35;2.20;;;10.90;99.90;;;;;;4969239;28;20049;-76
2023/03/31 00:33:54;;;;;;;7.28;2.08;;;11.00;99.90;;;;;;4990704;28;20432;-75
2023/03/31 00:36:26;;;;;;;7.78;1.33;;;11.00;99.90;;;;;;4977583;28;23292;-75
2023/03/31 00:38:55;;;;;;;6.47;1.70;;;11.00;99.90;;;;;;4980462;28;20568;-75
2023/03/31 00:41:21;;;;;;;11.90;1.48;;;11.00;99.90;;;;;;4974642;28;20041;-74
2023/03/31 00:44:07;;;;;;;9.85;1.23;;;11.00;99.90;;;;;;4991492;28;20038;-75
2023/03/31 00:47:02;;;;;;;7.90;1.35;;;11.00;99.90;;;;;;4972204;28;20050;-75
2023/03/31 00:49:31;;;;;;;5.45;0.80;;;11.10;99.90;;;;;;4982632;28;20056;-75
2023/03/31 00:52:14;;;;;;;4.57;0.70;;;11.10;99.90;;;;;;4987490;28;20050;-75
2023/03/31 00:54:43;;;;;;;;;;;11.10;99.90;;;;;;4995917;28;20630;-75
2023/03/31 00:57:10;;;;;;;5.93;0.82;;;11.10;99.90;;;;;;4977038;28;19924;-75
2023/03/31 00:59:44;;;;;;;6.13;0.70;;;11.10;99.90;;;;;;4983340;28;20038;-74
2023/03/31 01:02:13;;;;;;;5.72;0.75;;;11.10;99.90;;;;;;4974770;28;20046;-74
2023/03/31 01:04:45;;;;;;;7.68;1.05;;;11.20;99.90;;;;;;4980961;28;20497;-73
2023/03/31 01:07:21;;;;;;;5.53;1.05;;;11.20;99.90;;;;;;4993752;28;20042;-72
2023/03/31 01:09:53;;;;;;;5.72;0.90;;;11.10;99.90;;;;;;4976621;28;20417;-73
2023/03/31 01:12:21;;;;;;;5.57;0.93;;;11.10;99.90;;;;;;4973080;28;20037;-73
2023/03/31 01:14:50;;;;;;;8.77;1.17;;;11.10;99.90;;;;;;4981212;28;20050;-73
2023/03/31 01:17:20;;;;;;;3.72;0.70;;;11.10;99.90;;;;;;4980042;28;20072;-74
2023/03/31 01:20:17;;;;;;;4.57;0.60;;;11.00;99.90;;;;;;4981131;28;20038;-78
2023/03/31 01:22:49;;;;;;;3.95;0.80;;;11.00;99.90;;;;;;4976969;28;20645;-79
2023/03/31 01:25:41;;;;;;;6.50;0.95;;;10.90;99.90;;;;;;4963850;28;20045;-79
2023/03/31 01:28:21;;;;;;;4.82;0.80;;;10.80;99.90;;;;;;4975818;28;20037;-78
2023/03/31 01:31:04;;;;;;;3.63;0.57;;;10.80;99.90;;;;;;4987653;28;20029;-78
2023/03/31 01:33:30;;;;;;;;;;;10.70;99.90;;;;;;4979255;28;20072;-79
2023/03/31 01:36:15;;;;;;;4.85;0.68;;;10.70;99.90;;;;;;4993929;28;19917;-79
2023/03/31 01:38:47;;;;;;;2.92;0.50;;;10.70;99.90;;;;;;4977643;28;20038;-78
2023/03/31 01:41:32;;;;;;;3.03;0.50;;;10.60;99.90;;;;;;4974280;28;20417;-78
2023/03/31 01:44:23;;;;;;;4.55;0.60;;;10.60;99.90;;;;;;4980657;28;20050;-79
2023/03/31 01:47:06;;;;;;;5.13;0.60;;;10.60;99.90;;;;;;4962288;28;20050;-78
2023/03/31 01:50:00;;;;;;;2.63;0.50;;;10.70;99.90;;;;;;4978100;28;20034;-79
2023/03/31 01:52:48;;;;;;;4.55;0.60;;;10.70;99.90;;;;;;4957071;28;20040;-78
2023/03/31 01:55:34;;;;;;;5.43;0.60;;;10.70;99.90;;;;;;4977521;28;20049;-77
2023/03/31 01:58:23;;;;;;;1.80;0.32;;;10.70;99.90;;;;;;4981582;28;20517;-77
2023/03/31 02:01:00;;;;;;;4.15;0.40;;;10.70;99.90;;;;;;4977503;28;20040;-78
2023/03/31 02:03:36;;;;;;;4.57;0.50;;;10.70;99.90;;;;;;4995055;28;20413;-77
2023/03/31 02:06:10;;;;;;;5.57;0.60;;;10.70;99.90;;;;;;4962689;28;20049;-78
2023/03/31 02:08:44;;;;;;;5.70;0.60;;;10.70;99.90;;;;;;4977159;28;20041;-78
2023/03/31 02:11:12;;;;;;;6.95;0.90;;;10.70;99.90;;;;;;4969704;28;20344;-78
2023/03/31 02:13:40;;;;;;;5.65;0.73;;;10.70;99.90;;;;;;4959854;28;20041;-77
2023/03/31 02:16:13;;;;;;;4.38;0.60;;;10.70;99.90;;;;;;4979368;28;20033;-78
2023/03/31 02:18:40;;;;;;;4.78;0.70;;;10.70;99.90;;;;;;4977506;28;20041;-78
2023/03/31 02:21:10;;;;;;;4.15;0.70;;;10.80;99.90;;;;;;4975005;28;20053;-78
2023/03/31 02:23:37;;;;;;;5.15;0.90;;;10.80;99.90;;;;;;4983717;28;20651;-77
2023/03/31 02:26:10;;;;;;;4.57;0.80;;;10.80;99.90;;;;;;4979599;28;20049;-77
2023/03/31 02:28:37;;;;;;;7.93;0.70;;;10.80;99.90;;;;;;4976357;28;20393;-78
2023/03/31 02:31:10;;;;;;;5.65;0.73;;;10.80;99.90;;;;;;4970621;28;20045;-80
2023/03/31 02:33:37;;;;;;;3.15;0.70;;;10.80;99.90;;;;;;4976477;28;20053;-78
2023/03/31 02:36:04;;;;;;;7.43;0.60;;;10.80;99.90;;;;;;4975888;28;20042;-78
2023/03/31 02:38:36;;;;;;;6.18;0.73;;;10.80;99.90;;;;;;4978826;28;20505;-77
2023/03/31 02:41:05;;;;;;;;;;;10.90;99.90;;;;;;4974931;28;20038;-78
2023/03/31 02:43:32;;;;;;;5.78;0.75;;;10.90;99.90;;;;;;4980745;28;19921;-78
2023/03/31 02:45:58;;;;;;;7.05;1.00;;;10.80;99.90;;;;;;4962676;28;20049;-78
2023/03/31 02:48:33;;;;;;;3.55;1.00;;;10.90;99.90;;;;;;4976475;28;20511;-78
2023/03/31 02:51:42;;;;;;;7.40;1.05;;;10.90;99.90;;;;;;4955254;28;20436;-77
2023/03/31 02:54:20;;;;;;;7.32;1.13;;;10.90;99.90;;;;;;4976129;28;22759;-78
2023/03/31 02:57:27;;;;;;;7.75;0.93;;;10.90;99.90;;;;;;4960489;28;20049;-78
2023/03/31 03:00:23;;;;;;;6.85;0.90;;;10.90;99.90;;;;;;4990282;28;20041;-79
2023/03/31 03:02:57;;;;;;;9.57;1.35;;;10.90;99.90;;;;;;4975289;28;20060;-79
2023/03/31 03:06:14;;;;;;;13.43;2.05;;;10.90;99.90;;;;;;4966479;28;20050;-78
2023/03/31 03:08:59;;;;;;;6.13;1.35;;;10.80;99.90;;;;;;4936843;28;20053;-79
2023/03/31 03:11:44;;;;;;;8.40;1.05;;;10.80;99.90;;;;;;4967342;28;20045;-78
2023/03/31 03:14:17;;;;;;;10.50;1.02;;;10.80;99.90;;;;;;4991201;28;20038;-78
2023/03/31 03:16:51;;;;;;;6.15;0.80;;;10.80;99.90;;;;;;4974403;28;20040;-77
2023/03/31 03:19:21;;;;;;;4.72;0.60;;;10.80;99.90;;;;;;4977813;28;20040;-77
2023/03/31 03:21:48;;;;;;;9.43;0.88;;;10.70;99.90;;;;;;4970184;28;20052;-78
2023/03/31 03:24:17;;;;;;;5.53;0.63;;;10.70;99.90;;;;;;4981897;28;20072;-78
2023/03/31 03:26:44;;;;;;;4.55;0.50;;;10.70;99.90;;;;;;4979873;28;20041;-77
2023/03/31 03:29:14;;;;;;;9.07;0.85;;;10.70;99.90;;;;;;4962143;28;20853;-80
2023/03/31 03:31:41;;;;;;;4.88;0.57;;;10.70;99.90;;;;;;4967552;28;20041;-78
2023/03/31 03:34:08;;;;;;;7.40;0.70;;;10.70;99.90;;;;;;4976138;28;20049;-77
2023/03/31 03:36:36;;;;;;;2.97;0.52;;;10.60;99.90;;;;;;4974646;28;20038;-78
2023/03/31 03:39:04;;;;;;;6.70;0.50;;;10.70;99.90;;;;;;4976402;28;20054;-78
2023/03/31 03:41:32;;;;;;;6.55;0.55;;;10.70;99.90;;;;;;4968481;28;20045;-78
2023/03/31 03:43:59;;;;;;;3.97;0.40;;;10.60;99.90;;;;;;4962891;28;20363;-78
2023/03/31 03:46:26;;;;;;;5.75;0.60;;;10.70;99.90;;;;;;4964055;28;20045;-79
2023/03/31 03:48:52;;;;;;;5.70;0.77;;;10.70;99.90;;;;;;4962019;28;20049;-79
2023/03/31 03:51:19;;;;;;;3.28;0.40;;;10.70;99.90;;;;;;4969612;28;20501;-78
2023/03/31 03:53:45;;;;;;;8.63;0.70;;;10.70;99.90;;;;;;4976159;28;20432;-78
2023/03/31 03:56:11;;;;;;;6.35;1.02;;;10.70;99.90;;;;;;4977449;28;20524;-80
2023/03/31 03:58:37;;;;;;;5.43;0.80;;;10.60;99.90;;;;;;4974750;28;20045;-79
2023/03/31 04:01:04;;;;;;;4.85;0.75;;;10.60;99.90;;;;;;4970312;28;20034;-80
2023/03/31 04:03:31;;;;;;;10.02;0.80;;;10.70;99.90;;;;;;4962791;28;20054;-81
2023/03/31 04:05:57;;;;;;;7.82;0.70;;;10.70;99.90;;;;;;4980946;28;20037;-79
2023/03/31 04:08:23;;;;;;;5.20;0.70;;;10.60;99.90;;;;;;4994413;28;20038;-82
2023/03/31 04:10:50;;;;;;;7.75;0.90;;;10.60;99.90;;;;;;4972180;28;20519;-81
2023/03/31 04:13:17;;;;;;;5.18;0.60;;;10.60;99.90;;;;;;4974287;28;20060;-81
2023/03/31 04:15:44;;;;;;;5.95;0.70;;;10.60;99.90;;;;;;4975778;28;20072;-80
2023/03/31 04:18:21;;;;;;;4.45;0.68;;;10.60;99.90;;;;;;4976553;28;20517;-82
2023/03/31 04:21:04;;;;;;;13.85;1.05;;;10.70;99.90;;;;;;4969377;28;20042;-80
2023/03/31 04:23:31;;;;;;;;;;;10.60;99.90;;;;;;4983712;28;20068;-82
2023/03/31 04:25:58;;;;;;;15.00;1.40;;;10.60;99.90;;;;;;4998403;28;20404;-81
2023/03/31 04:28:25;;;;;;;11.27;1.40;;;10.50;99.90;;;;;;4986110;28;20068;-80
2023/03/31 04:30:57;;;;;;;10.38;1.85;;;10.50;99.90;;;;;;4974098;28;20511;-82
2023/03/31 04:33:23;;;;;;;7.82;1.23;;;10.50;99.90;;;;;;4978365;28;20134;-80
2023/03/31 04:35:51;;;;;;;8.77;1.40;;;10.50;99.90;;;;;;4977692;28;20380;-81
2023/03/31 04:38:19;;;;;;;7.80;1.50;;;10.50;99.90;;;;;;4962234;28;20038;-80
2023/03/31 04:40:47;;;;;;;9.75;1.33;;;10.50;99.90;;;;;;4958342;28;20037;-81
2023/03/31 04:43:15;;;;;;;15.50;1.65;;;10.50;99.90;;;;;;4964393;28;20046;-79
2023/03/31 04:45:41;;;;;;;12.77;1.38;;;10.50;99.90;;;;;;4997699;28;20049;-82
2023/03/31 04:48:08;;;;;;;11.00;1.60;;;10.50;99.90;;;;;;4981482;28;20044;-80
2023/03/31 04:50:34;;;;;;;9.55;1.50;;;10.50;99.90;;;;;;4972853;28;23102;-80
2023/03/31 04:53:02;;;;;;;7.47;1.55;;;10.50;99.90;;;;;;4976211;28;20405;-80
2023/03/31 04:55:28;;;;;;;5.68;0.93;;;10.50;99.90;;;;;;4978750;28;20041;-80
2023/03/31 04:57:55;;;;;;;9.15;1.42;;;10.50;99.90;;;;;;4978898;28;20049;-80
2023/03/31 05:00:22;;;;;;;5.97;0.90;;;10.50;99.90;;;;;;4989900;28;20033;-81
2023/03/31 05:02:48;;;;;;;9.05;1.13;;;10.50;99.90;;;;;;4960884;28;20042;-79
2023/03/31 05:05:15;;;;;;;6.80;1.02;;;10.50;99.90;;;;;;4987211;28;20041;-79
2023/03/31 05:07:42;;;;;;;10.88;1.40;;;10.40;99.90;;;;;;4981816;28;20509;-79
2023/03/31 05:10:08;;;;;;;7.90;1.50;;;10.40;99.90;;;;;;4977924;28;20042;-79
2023/03/31 05:12:35;;;;;;;11.30;1.63;;;10.40;99.90;;;;;;4958456;28;20041;-80
2023/03/31 05:15:03;;;;;;;10.65;1.27;;;10.40;99.90;;;;;;4963246;28;20707;-81
2023/03/31 05:17:34;;;;;;;10.48;1.63;;;10.40;99.90;;;;;;4977872;28;20053;-80
2023/03/31 05:20:04;;;;;;;8.43;2.22;;;10.40;99.90;;;;;;4974307;28;20038;-80
2023/03/31 05:22:34;;;;;;;5.30;0.77;;;10.40;99.90;;;;;;4957677;28;20045;-79
2023/03/31 05:25:00;;;;;;;7.68;1.17;;;10.40;99.90;;;;;;4982727;28;20875;-79
2023/03/31 05:27:27;;;;;;;9.40;1.42;;;10.40;99.90;;;;;;4982867;28;20064;-78
2023/03/31 05:29:53;;;;;;;11.27;1.05;;;10.40;99.90;;;;;;4977388;28;20041;-79
2023/03/31 05:32:20;;;;;;;9.05;1.67;;;10.40;99.90;;;;;;4971473;28;20041;-79
2023/03/31 05:34:46;;;;;;;10.75;1.70;;;10.40;99.90;;;;;;4961232;28;20449;-81
2023/03/31 05:37:12;;;;;;;14.68;2.25;;;10.40;99.90;;;;;;4975170;28;20038;-77
2023/03/31 05:39:39;;;;;;;8.18;1.52;;;10.40;99.90;;;;;;4977136;28;20041;-78
2023/03/31 05:42:06;;;;;;;9.07;1.38;;;10.40;99.90;;;;;;4970618;28;20362;-77
2023/03/31 05:44:32;;;;;;;8.57;1.42;;;10.40;99.90;;;;;;4983346;28;20040;-78
2023/03/31 05:46:59;;;;;;;8.40;1.50;;;10.40;99.90;;;;;;4998745;28;22938;-78
2023/03/31 05:49:25;;;;;;;9.45;1.98;;;10.30;99.90;;;;;;4997076;28;20049;-78
2023/03/31 05:51:52;;;;;;;10.48;1.98;;;10.40;99.90;;;;;;4971120;28;20057;-77
2023/03/31 05:54:18;;;;;;;18.27;5.88;;;10.40;99.90;;;;;;4978809;28;20942;-78
2023/03/31 05:56:44;;;;;;;11.15;3.08;;;10.40;99.90;;;;;;4992250;28;20417;-79
2023/03/31 05:59:11;;;;;;;13.40;2.00;;;10.40;99.90;;;;;;4979624;28;20038;-79
2023/03/31 06:01:37;;;;;;;8.25;1.80;;;10.40;99.90;;;;;;4984625;28;20037;-79
2023/03/31 06:04:03;;;;;;;11.00;1.98;;;10.40;99.90;;;;;;4962994;28;20030;-79
2023/03/31 06:06:31;;;;;;;12.82;3.38;;;10.50;99.90;;;;;;4983558;28;20048;-78
2023/03/31 06:08:58;;;;;;;17.13;4.97;;;10.50;99.90;;;;;;4996229;28;20045;-79
2023/03/31 06:11:24;;;;;;;12.40;3.38;;;10.50;99.90;;;;;;4971456;28;20038;-78
2023/03/31 06:13:51;;;;;;;19.52;5.78;;;10.50;99.90;;;;;;4975537;28;20045;-81
2023/03/31 06:16:17;;;;;;;12.10;2.85;;;10.50;99.90;;;;;;4976431;28;20061;-88
2023/03/31 06:18:44;;;;;;;8.85;2.20;;;10.50;99.90;;;;;;4974450;28;20042;-78
2023/03/31 06:21:16;;;;;;;11.00;2.22;;;10.50;99.90;;;;;;4973738;28;20052;-78
2023/03/31 06:23:43;;;;;;;7.40;1.50;;;10.50;99.90;;;;;;4976045;28;20500;-79
2023/03/31 06:26:15;;;;;;;9.15;1.60;;;10.50;99.90;;;;;;4980326;28;20061;-77
2023/03/31 06:28:42;;;;;;;8.23;1.33;;;10.50;99.90;;;;;;4981792;28;20026;-78
2023/03/31 06:31:12;;;;;;;12.70;3.42;;;10.60;99.90;;;;;;4977104;28;20531;-78
2023/03/31 06:33:40;;;;;;;11.20;3.13;;;10.60;99.90;;;;;;4975054;28;20417;-77
2023/03/31 06:36:07;;;;;;;14.65;2.42;;;10.60;99.90;;;;;;4977245;28;20986;-79
2023/03/31 06:38:35;;;;;;;8.70;1.38;;;10.60;99.90;;;;;;4974483;28;20045;-79
2023/03/31 06:41:01;;;;;;;8.75;1.58;;;10.60;99.90;;;;;;4974392;28;20029;-78
2023/03/31 06:43:28;;;;;;;6.43;1.58;;;10.70;99.90;;;;;;4985915;28;20050;-77
2023/03/31 06:45:55;;;;;;;8.27;1.20;;;10.60;99.90;;;;;;4962775;28;21186;-79
2023/03/31 06:48:23;;;;;;;7.80;1.17;;;10.70;99.90;;;;;;4964375;28;20466;-78
2023/03/31 06:50:52;;;;;;;5.78;1.23;;;10.70;99.90;;;;;;4994406;28;20383;-78
2023/03/31 06:53:18;;;;;;;5.88;0.80;;;10.70;99.90;;;;;;4971454;28;20041;-78
2023/03/31 06:55:44;;;;;;;7.88;0.90;;;10.80;99.90;;;;;;4978018;28;20376;-78
2023/03/31 06:58:11;;;;;;;6.90;0.98;;;10.80;99.90;;;;;;4976594;28;20045;-77
2023/03/31 07:00:37;;;;;;;7.05;2.33;;;10.80;99.90;;;;;;4975314;28;20034;-81
2023/03/31 07:03:05;;;;;;;9.30;2.50;;;10.90;99.90;;;;;;4956052;28;20053;-82
2023/03/31 07:05:31;;;;;;;6.78;2.60;;;10.90;99.90;;;;;;4978403;28;20033;-79
2023/03/31 07:07:59;;;;;;;5.38;1.00;;;11.00;99.90;;;;;;4983987;28;20065;-81
2023/03/31 07:10:27;;;;;;;3.80;0.98;;;11.00;99.90;;;;;;4962381;28;20390;-79
2023/03/31 07:12:54;;;;;;;8.57;1.38;;;11.00;99.90;;;;;;4988940;28;20505;-78
2023/03/31 07:15:21;;;;;;;4.88;0.70;;;11.00;99.90;;;;;;4979100;28;20049;-78
2023/03/31 07:17:49;;;;;;;8.63;0.77;;;11.00;99.90;;;;;;4976744;28;20045;-80
2023/03/31 07:20:17;;;;;;;2.85;0.55;;;11.00;99.90;;;;;;4973860;28;21710;-80
2023/03/31 07:22:46;;;;;;;5.20;0.90;;;11.00;99.90;;;;;;4971868;28;20649;-79
2023/03/31 07:25:14;;;;;;;5.88;0.80;;;11.00;99.90;;;;;;4977027;28;20041;-82
2023/03/31 07:27:41;;;;;;;5.93;0.73;;;10.90;99.90;;;;;;4963768;28;20056;-80
2023/03/31 07:30:10;;;;;;;2.97;0.60;;;10.90;99.90;;;;;;4964484;28;20646;-83
2023/03/31 07:32:40;;;;;;;4.90;0.70;;;10.90;99.90;;;;;;4974776;28;20033;-81
2023/03/31 07:35:08;;;;;;;5.60;0.57;;;10.90;99.90;;;;;;4960695;28;20551;-81
2023/03/31 07:37:40;;;;;;;6.72;0.90;;;10.90;99.90;;;;;;4991196;28;20060;-82
2023/03/31 07:40:08;;;;;;;4.30;0.82;;;10.90;99.90;;;;;;4958605;28;20029;-82
2023/03/31 07:42:34;;;;;;;4.13;0.63;;;10.90;99.90;;;;;;4955983;28;20693;-83
2023/03/31 07:45:01;;;;;;;4.05;1.00;;;11.00;99.90;;;;;;4971722;28;20046;-83
2023/03/31 07:47:28;;;;;;;4.10;0.98;;;11.00;99.90;;;;;;4980366;28;20054;-84
2023/03/31 07:49:54;;;;;;;2.60;0.60;;;10.90;99.90;;;;;;4979121;28;20417;-83
2023/03/31 07:52:20;;;;;;;6.22;0.80;;;10.90;99.90;;;;;;4972776;28;20065;-86
2023/03/31 07:54:47;;;;;;;4.03;0.70;;;10.90;99.90;;;;;;4961276;28;20038;-83
2023/03/31 07:57:16;;;;;;;4.90;0.70;;;10.90;99.90;;;;;;4977412;28;20046;-83
2023/03/31 07:59:42;;;;;;;2.25;0.52;;;10.90;99.90;;;;;;4979413;28;20077;-84
2023/03/31 08:02:12;;;;;;;6.13;1.00;;;10.90;99.90;;;;;;4971561;28;20153;-82
2023/03/31 08:04:41;;;;;;;4.28;1.00;;;11.00;99.90;;;;;;4980874;28;20412;-82
2023/03/31 08:07:09;;;;;;;7.28;1.42;;;10.90;99.90;;;;;;4966611;28;20033;-83
2023/03/31 08:09:36;;;;;;;8.02;1.33;;;10.90;99.90;;;;;;4985504;28;20523;-87
2023/03/31 08:12:03;;;;;;;4.50;1.02;;;10.90;99.90;;;;;;4982068;28;20170;-83
2023/03/31 08:14:29;;;;;;;4.05;0.82;;;10.90;99.90;;;;;;4969817;28;20044;-84
2023/03/31 08:16:56;;;;;;;5.18;1.05;;;10.90;99.90;;;;;;4979762;28;20078;-84
2023/03/31 08:19:23;;;;;;;4.22;0.90;;;10.90;99.90;;;;;;4979670;28;20038;-81
2023/03/31 08:21:51;;;;;;;5.07;0.80;;;10.90;99.90;;;;;;4972633;28;20057;-81
2023/03/31 08:24:18;;;;;;;6.00;1.00;;;11.00;99.90;;;;;;4981001;28;20622;-82
2023/03/31 08:26:44;;;;;;;4.45;0.70;;;11.00;99.90;;;;;;4979699;28;20050;-82
2023/03/31 08:29:11;;;;;;;3.25;0.60;;;11.00;99.90;;;;;;4996192;28;20029;-81
2023/03/31 08:31:38;;;;;;;3.08;0.60;;;11.00;99.90;;;;;;4979271;28;20045;-84
2023/03/31 08:34:05;;;;;;;8.27;1.75;;;11.00;99.90;;;;;;4985929;28;20052;-84
2023/03/31 08:36:32;;;;;;;5.47;0.80;;;11.10;99.90;;;;;;4980390;28;20038;-83
2023/03/31 08:38:58;;;;;;;6.88;1.27;;;11.10;99.90;;;;;;4995329;28;20041;-81
2023/03/31 08:41:59;;;;;;;6.25;1.42;;;11.20;99.90;;;;;;4972181;28;20387;-85
2023/03/31 08:44:33;;;;;;;7.85;1.60;;;11.30;99.90;;;;;;4981117;28;20049;-80
2023/03/31 08:47:01;;;;;;;7.57;1.33;;;11.40;99.90;;;;;;4994325;28;20057;-81
2023/03/31 08:49:38;;;;;;;8.02;1.60;;;11.50;99.90;;;;;;4982921;28;20049;-79
2023/03/31 08:52:11;;;;;;;11.07;2.83;;;11.50;99.90;;;;;;4975477;28;20065;-80
2023/03/31 08:54:42;;;;;;;10.05;2.42;;;11.70;99.90;;;;;;4982381;28;20034;-82
2023/03/31 08:57:20;;;;;;;14.30;2.28;;;11.80;99.90;;;;;;4975605;28;20044;-81
2023/03/31 08:59:46;;;;;;;13.82;2.75;;;11.80;99.90;;;;;;4960374;28;20401;-84
2023/03/31 09:02:25;;;;;;;12.35;2.40;;;11.90;99.90;;;;;;4939371;28;20050;-81
2023/03/31 09:05:24;;;;;;;15.25;2.53;;;12.00;99.90;;;;;;4976062;28;20054;-84
2023/03/31 09:08:23;;;;;;;13.52;2.45;;;12.10;99.90;;;;;;4992813;28;20302;-79
2023/03/31 09:10:56;;;;;;;14.98;3.30;;;12.20;99.90;;;;;;4976952;28;20045;-80
2023/03/31 09:13:54;;;;;;;19.65;4.07;;;12.40;99.90;;;;;;4965145;28;20057;-81
2023/03/31 09:16:34;;;;;;;13.75;3.03;;;12.40;99.90;;;;;;4985092;28;20041;-80
2023/03/31 09:19:01;;;;;;;14.68;2.63;;;12.50;99.90;;;;;;4961101;28;20049;-86
2023/03/31 09:21:34;;;;;;;20.33;2.95;;;12.60;99.90;;;;;;4971828;28;20038;-79
2023/03/31 09:24:15;;;;;;;12.35;2.08;;;12.60;99.90;;;;;;4978139;28;20041;-82
2023/03/31 09:27:06;;;;;;;17.30;3.00;;;12.60;99.90;;;;;;4979572;28;20374;-80
2023/03/31 09:29:57;;;;;;;15.68;2.13;;;12.60;99.90;;;;;;4991269;28;20053;-81
2023/03/31 09:32:27;;;;;;;17.20;3.00;;;12.60;99.90;;;;;;4993352;28;20493;-81
2023/03/31 09:35:06;;;;;;;19.80;2.75;;;12.60;99.90;;;;;;4966016;28;20506;-78
2023/03/31 09:37:32;;;;;;;13.23;2.47;;;12.60;99.90;;;;;;4978998;28;20859;-83
2023/03/31 09:40:06;;;;;;;16.48;2.53;;;12.60;99.90;;;;;;4976801;28;20037;-83
2023/03/31 09:42:34;;;;;;;18.20;2.67;;;12.70;99.90;;;;;;4955247;28;20041;-86
2023/03/31 09:45:01;;;;;;;16.55;3.00;;;12.70;99.90;;;;;;4977500;28;20045;-81
2023/03/31 09:47:48;;;;;;;16.95;3.13;;;12.80;99.90;;;;;;4990466;28;20054;-79
2023/03/31 09:50:15;;;;;;;15.70;3.22;;;12.80;99.90;;;;;;4936781;28;1066425;-86
2023/03/31 09:52:58;;;;;;;14.38;2.83;;;12.80;99.90;;;;;;4978393;28;23388;-83
2023/03/31 09:55:31;;;;;;;16.05;2.70;;;12.90;99.90;;;;;;4964537;28;20033;-81
2023/03/31 09:58:00;;;;;;;16.15;3.60;;;12.90;99.90;;;;;;4996557;28;20045;-79
2023/03/31 10:00:27;;;;;;;15.15;3.33;;;13.00;99.90;;;;;;4975989;28;20125;-80
2023/03/31 10:02:54;;;;;;;13.85;3.05;;;13.10;99.90;;;;;;4976220;28;20804;-78
2023/03/31 10:05:35;;;;;;;13.95;2.95;;;13.10;99.90;;;;;;4977927;28;20757;-83
2023/03/31 10:08:26;;;;;;;18.23;3.70;;;13.20;99.90;;;;;;4994730;28;20041;-83
2023/03/31 10:11:12;;;;;;;16.15;3.20;;;13.20;99.90;;;;;;4977583;28;20042;-78
2023/03/31 10:13:57;;;;;;;13.05;2.70;;;13.10;99.90;;;;;;4981847;28;20080;-80
2023/03/31 10:16:29;;;;;;;18.85;2.80;;;13.00;99.90;;;;;;4982594;28;20038;-82
2023/03/31 10:19:30;;;;;;;11.88;1.95;;;12.90;99.90;;;;;;4980957;28;20052;-78
2023/03/31 10:21:58;;;;;;;16.25;2.53;;;12.90;99.90;;;;;;4972373;28;20046;-82
2023/03/31 10:24:25;;;;;;;18.10;3.28;;;12.90;99.90;;;;;;4991826;28;20436;-81
2023/03/31 10:26:54;;;;;;;18.48;3.10;;;12.80;99.90;;;;;;4992629;28;20049;-79
2023/03/31 10:29:28;;;;;;;14.80;2.67;;;12.80;99.90;;;;;;4960236;28;20041;-82
2023/03/31 10:31:55;;;;;;;13.65;2.45;;;12.70;99.90;;;;;;4974623;28;20061;-81
2023/03/31 10:34:23;;;;;;;20.42;4.60;;;12.70;99.90;;;;;;4982663;28;20037;-78
2023/03/31 10:36:50;;;;;;;15.77;3.67;;;12.60;99.90;;;;;;4966368;28;20042;-89
2023/03/31 10:39:18;;;;;;;18.58;3.17;;;12.60;99.90;;;;;;4980670;28;20624;-80
2023/03/31 10:41:52;;;;;;;18.15;2.40;;;12.60;99.90;;;;;;4986610;28;20535;-86
2023/03/31 10:44:38;;;;;;;15.55;2.20;;;12.60;99.90;;;;;;4993293;28;20034;-80
2023/03/31 10:47:20;;;;;;;18.42;2.42;;;12.70;99.90;;;;;;4975772;28;21167;-78
2023/03/31 10:49:50;;;;;;;17.08;2.65;;;12.80;99.90;;;;;;4993551;28;20030;-82
2023/03/31 10:52:21;;;;;;;15.13;2.25;;;12.90;99.90;;;;;;4987014;28;20050;-86
2023/03/31 10:54:50;;;;;;;13.63;1.55;;;13.10;99.90;;;;;;4995665;28;20046;-78
2023/03/31 10:57:21;;;;;;;13.35;1.92;;;13.30;99.90;;;;;;4981512;28;20088;-80
2023/03/31 11:00:12;;;;;;;19.13;2.42;;;13.40;99.90;;;;;;4967728;28;20045;-82
2023/03/31 11:02:48;;;;;;;16.23;2.20;;;13.50;99.90;;;;;;4987211;28;20038;-82
2023/03/31 11:05:39;;;;;;;16.58;2.45;;;13.60;99.90;;;;;;4976383;28;20033;-80
2023/03/31 11:08:24;;;;;;;14.00;2.10;;;13.70;99.90;;;;;;4980303;28;20045;-83
2023/03/31 11:11:02;;;;;;;10.52;1.40;;;13.80;99.90;;;;;;4975742;28;20425;-79
2023/03/31 11:14:11;;;;;;;14.73;1.92;;;13.90;99.90;;;;;;4988591;28;20295;-80
2023/03/31 11:17:09;;;;;;;11.10;1.80;;;14.00;99.90;;;;;;4981486;28;20072;-86
2023/03/31 11:20:06;;;;;;;11.43;1.40;;;13.90;99.90;;;;;;4926911;28;20732;-84
2023/03/31 11:22:56;;;;;;;15.90;1.67;;;13.80;99.90;;;;;;4968395;28;20053;-80
2023/03/31 11:25:34;;;;;;;9.98;2.13;;;13.70;99.90;;;;;;4974078;28;20497;-79
2023/03/31 11:28:22;;;;;;;11.20;1.83;;;13.60;99.90;;;;;;4977536;28;20053;-82
2023/03/31 11:30:57;;;;;;;10.35;1.63;;;13.60;99.90;;;;;;5007987;28;20021;-84
2023/03/31 11:33:48;;;;;;;17.27;3.15;;;13.60;99.90;;;;;;5031126;28;20036;-81
2023/03/31 11:36:45;;;;;;;12.65;2.10;;;13.70;99.90;;;;;;5011631;28;20049;-83
2023/03/31 11:39:23;;;;;;;10.55;1.33;;;13.80;99.90;;;;;;4983058;28;20026;-83
2023/03/31 11:42:13;;;;;;;10.65;1.20;;;13.80;99.90;;;;;;4986364;28;20046;-81
2023/03/31 11:44:47;;;;;;;12.02;1.83;;;13.70;99.90;;;;;;4978163;28;20060;-81
2023/03/31 11:47:21;;;;;;;7.97;1.33;;;13.80;99.90;;;;;;4978267;28;20034;-84
2023/03/31 11:49:59;;;;;;;8.65;1.40;;;13.90;99.90;;;;;;4959958;28;20041;-82
2023/03/31 11:52:33;;;;;;;9.50;1.08;;;14.00;99.90;;;;;;4970116;28;20057;-81
2023/03/31 11:55:16;;;;;;;15.35;1.85;;;14.20;99.90;;;;;;4981868;28;20040;-80
2023/03/31 11:58:08;;;;;;;8.02;1.20;;;14.50;99.90;;;;;;4997614;28;20052;-79
2023/03/31 12:00:46;;;;;;;8.95;1.55;;;14.60;99.90;;;;;;4978374;28;20042;-83
2023/03/31 12:03:41;;;;;;;12.65;1.90;;;14.70;99.90;;;;;;4974026;28;20432;-83
2023/03/31 12:06:18;;;;;;;12.13;1.73;;;14.60;99.90;;;;;;4992054;28;20058;-82
2023/03/31 12:09:09;;;;;;;10.60;2.33;;;14.40;99.90;;;;;;4994396;28;20508;-82
2023/03/31 12:12:11;;;;;;;10.63;2.15;;;14.20;99.90;;;;;;4989216;28;20057;-83
2023/03/31 12:14:56;;;;;;;9.02;1.67;;;14.10;99.90;;;;;;4966991;28;20056;-81
2023/03/31 12:17:26;;;;;;;9.10;0.90;;;13.90;99.90;;;;;;4998160;28;20042;-80
2023/03/31 12:19:56;;;;;;;12.02;1.98;;;13.90;99.90;;;;;;4977886;28;20038;-86
2023/03/31 12:22:33;;;;;;;11.10;1.40;;;14.00;99.90;;;;;;4974698;28;20050;-82
2023/03/31 12:24:59;;;;;;;13.27;2.10;;;14.20;99.90;;;;;;4995241;28;20052;-80
2023/03/31 12:27:33;;;;;;;12.13;1.67;;;14.30;99.90;;;;;;4966107;28;20045;-84
2023/03/31 12:30:20;;;;;;;9.10;1.35;;;14.20;99.90;;;;;;4994317;28;20052;-82
2023/03/31 12:33:02;;;;;;;10.23;1.20;;;14.10;99.90;;;;;;4975742;28;20073;-80
2023/03/31 12:35:47;;;;;;;12.07;1.40;;;14.10;99.90;;;;;;4983318;28;20505;-81
2023/03/31 12:38:35;;;;;;;7.82;1.00;;;14.00;99.90;;;;;;4982683;28;20464;-84
2023/03/31 12:41:22;;;;;;;13.43;1.98;;;13.80;99.90;;;;;;4963071;28;20049;-79
2023/03/31 12:44:06;;;;;;;10.88;1.42;;;13.70;99.90;;;;;;4979756;28;20041;-81
2023/03/31 12:46:40;;;;;;;9.68;1.70;;;13.60;99.90;;;;;;4985590;28;20053;-82
2023/03/31 12:49:44;;;;;;;13.20;1.33;;;13.60;99.90;;;;;;4984175;28;20042;-84
2023/03/31 12:52:34;;;;;;;14.18;1.77;;;13.50;99.90;;;;;;4994507;28;20045;-77
2023/03/31 12:55:03;;;;;;;11.27;1.15;;;13.40;99.90;;;;;;4975194;28;20044;-81
2023/03/31 12:57:30;;;;;;;8.98;0.95;;;13.40;99.90;;;;;;4992048;28;20042;-81
2023/03/31 13:00:20;;;;;;;13.00;2.15;;;13.40;99.90;;;;;;4987853;28;20123;-81
2023/03/31 13:02:47;;;;;;;9.70;1.15;;;13.40;99.90;;;;;;4977399;28;20500;-79
2023/03/31 13:05:36;;;;;;;7.85;1.30;;;13.30;99.90;;;;;;4982745;28;20038;-81
2023/03/31 13:08:09;;;;;;;9.48;1.40;;;13.20;99.90;;;;;;4983349;28;20048;-84
2023/03/31 13:10:57;;;;;;;9.05;1.00;;;13.20;99.90;;;;;;4980212;28;20512;-84
2023/03/31 13:13:25;;;;;;;9.15;1.83;;;13.20;99.90;;;;;;4977708;28;20788;-78
2023/03/31 13:15:56;;;;;;;7.07;1.20;;;13.20;99.90;;;;;;4984090;28;20034;-84